createdAt,value
2019-01-13T00:04:30.028Z,19.90
2019-01-13T00:17:52.775Z,19.90
2019-01-13T00:31:15.624Z,19.90
2019-01-13T00:58:13.648Z,19.90
2019-01-13T01:11:20.871Z,20.00
2019-01-13T01:24:28.095Z,19.80
2019-01-13T01:37:35.249Z,19.80
2019-01-13T01:50:42.422Z,19.80
2019-01-13T02:17:07.831Z,19.80
2019-01-13T02:30:14.995Z,19.80
2019-01-13T02:43:22.162Z,19.80
2019-01-13T02:56:29.356Z,19.80
2019-01-13T03:09:36.511Z,19.70
2019-01-13T03:22:43.716Z,19.80
2019-01-13T03:36:07.734Z,19.70
2019-01-13T03:49:30.618Z,19.70
2019-01-13T04:02:53.192Z,19.80
2019-01-13T04:16:15.980Z,19.90
2019-01-13T04:29:38.801Z,19.90
2019-01-13T04:43:01.604Z,19.90
2019-01-13T04:56:24.451Z,19.90
2019-01-13T05:09:47.245Z,19.90
2019-01-13T05:23:10.077Z,19.90
2019-01-13T05:36:32.889Z,19.90
2019-01-13T05:49:55.714Z,19.90
2019-01-13T06:03:18.567Z,19.90
2019-01-13T06:16:41.345Z,19.90
2019-01-13T06:30:04.174Z,19.90
2019-01-13T06:56:28.657Z,19.90
2019-01-13T07:22:42.968Z,19.90
2019-01-13T07:35:48.739Z,19.90
2019-01-13T07:48:55.909Z,20.00
2019-01-13T08:02:03.098Z,20.00
2019-01-13T08:15:10.701Z,20.00
2019-01-13T08:28:34.811Z,20.00
2019-01-13T08:41:57.644Z,20.10
2019-01-13T08:55:20.444Z,20.10
2019-01-13T09:08:43.244Z,20.20
2019-01-13T09:22:06.079Z,20.20
2019-01-13T09:35:28.883Z,20.30
2019-01-13T09:48:51.695Z,20.10
2019-01-13T10:02:14.540Z,20.20
2019-01-13T10:15:37.371Z,20.20
2019-01-13T10:29:00.138Z,20.30
2019-01-13T10:42:22.968Z,20.20
2019-01-13T10:55:45.774Z,20.20
2019-01-13T11:09:08.603Z,20.30
2019-01-13T11:22:31.436Z,20.40
2019-01-13T11:35:54.244Z,20.40
2019-01-13T11:49:17.097Z,20.40
2019-01-13T12:02:39.873Z,20.50
2019-01-13T12:16:02.656Z,20.40
2019-01-13T12:29:25.505Z,20.40
2019-01-13T12:42:48.323Z,20.40
2019-01-13T12:56:11.226Z,20.50
2019-01-13T13:09:34.439Z,20.40
2019-01-13T13:22:56.775Z,20.10
2019-01-13T13:36:19.593Z,20.20
2019-01-13T13:49:42.418Z,20.40
2019-01-13T14:03:05.234Z,20.40
2019-01-13T14:16:28.032Z,20.40
2019-01-13T14:29:50.866Z,20.40
2019-01-13T14:43:14.057Z,20.50
2019-01-13T14:56:36.604Z,20.50
2019-01-13T15:09:59.298Z,20.50
2019-01-13T15:23:22.187Z,20.50
2019-01-13T15:36:44.918Z,20.50
2019-01-13T15:50:07.770Z,20.10
2019-01-13T16:03:30.554Z,20.50
2019-01-13T16:16:53.382Z,20.70
2019-01-13T16:30:16.209Z,20.60
2019-01-13T16:43:39.014Z,20.50
2019-01-13T16:57:01.853Z,20.40
2019-01-13T17:10:24.644Z,20.40
2019-01-13T17:23:47.465Z,20.40
2019-01-13T17:50:12.010Z,20.40
2019-01-13T18:03:19.247Z,20.40
2019-01-13T18:16:26.431Z,20.20
2019-01-13T18:29:33.636Z,20.40
2019-01-13T18:42:41.212Z,20.40
2019-01-13T18:56:05.224Z,20.40
2019-01-13T19:09:28.183Z,20.40
2019-01-13T19:22:50.863Z,20.40
2019-01-13T19:36:13.685Z,20.40
2019-01-13T19:49:36.493Z,20.40
2019-01-13T20:02:59.325Z,20.40
2019-01-13T20:16:22.198Z,20.40
2019-01-13T20:29:44.939Z,20.40
2019-01-13T20:43:07.830Z,20.40
2019-01-13T20:56:30.787Z,20.40
2019-01-13T21:09:53.414Z,20.40
2019-01-13T21:23:16.333Z,20.40
2019-01-13T21:36:39.157Z,20.40
2019-01-13T21:50:01.876Z,20.40
2019-01-13T22:03:24.685Z,20.40
2019-01-13T22:29:49.233Z,20.40
2019-01-13T22:42:56.387Z,20.30
2019-01-13T22:56:03.532Z,20.30
2019-01-13T23:09:10.779Z,20.30
2019-01-13T23:22:17.948Z,20.30
2019-01-13T23:35:25.140Z,20.40
2019-01-13T23:48:48.883Z,20.30
